DTMB

Monastir Habib Bourguiba International Airport

Monastir, Tunisia
METAR DTMB 181500Z 03005KT CAVOK 16/06 Q1024
Observed Flight Rules
Jan-18 @ 15:00 UTC (31 minutes ago) Visual Flight Rules
Wind Visibility Clouds
30° at 5 knots 10,000+ meters
  • Clear skies
Temperatures Readings
Current 16°C / 61°F
Dewpoint 6°C / 43°F
Humidity 52%
Altimeter 30.24" Hg
Pressure 1024 hPa
Elevation 2
METAR DTMB 181500Z 03005KT CAVOK 16/06 Q1024
Observed Flight Rules
Jan-18 @ 15:00 UTC
(31 minutes ago)
VFR
Wind Visibility
30° at 5 knots 10,000+ meters
Clouds
  • Clear skies
Temperature Dewpoint
16°C / 61°F 6°C / 43°F
Humidity Altimeter Pressure
52% 30.24" Hg 1024 hPa